Bradleyville, MO

5:24 PM CDT on September 17, 2014 (GMT -0500)
Baxter County Regional | Change Station
CLOSE
Current Station
Airport
Location: Mountain Home,
Elevation: 925 ft
Nearby Weather Stations
Active Advisory: Flash Flood Warning

Elev 925 ft 36.37 °N, 92.47 °W | Updated 13 minutes ago

Partly Cloudy
Partly Cloudy
65 °F
Feels Like 65 °F
N
0
Wind Variable Wind from North

Today
High -- | Low -- °F
--% Chance of Precip.
Yesterday
High -- | Low -- °F
Precip. -- in
6:55 AM 7:15 PM
Waning Crescent, 32% visible
Pressure 29.92 in
Visibility 4.0 miles
Clouds Few 800 ft
Dew Point 65 °F
Humidity 100%
Rainfall 0.49 in
Snow Depth Not available.
UV 2 out of 12
Pollen 6.20 out of 12
Air Quality Not available.
Flu Activity Not available.
SPECI KBPK 172211Z AUTO 00000KT 4SM BR FEW008 18/18 A2992 RMK AO2 T01830183

More Conditions Fewer Conditions

Pressure 29.92 in
Visibility 4.0 miles
Clouds Few 800 ft
Dew Point 65 °F
Humidity 100%
Rainfall 0.49 in
Snow Depth Not available.
UV 2 out of 12
Pollen 6.20 out of 12
Air Quality Not available.
Flu Activity Not available.
SPECI KBPK 172211Z AUTO 00000KT 4SM BR FEW008 18/18 A2992 RMK AO2 T01830183

More Conditions Fewer Conditions

10-Day Weather Forecast

Almanac

Astronomy

Sep. 17, 2014 Rise Set
Actual Time 6:55 AM CDT 7:15 PM CDT
Civil Twilight 6:29 AM CDT 7:41 PM CDT
Nautical Twilight 5:59 AM CDT 8:12 PM CDT
Astronomical Twilight 5:28 AM CDT 8:42 PM CDT
Moon 1:02 AM CDT 3:19 PM CDT
Length of Visible Light 13h 12m
Length of Day
12h 20m
Tomorrow will be 2m 19s shorter.
Waning Crescent, 32% of the Moon is Illuminated
Today
Waning Crescent
Sep 24
New
Oct 1
First Quarter
Oct 8
Full
Oct 15
Last Quarter

Today's Extremes

State Highs State Lows

Community

WunderPhotos

Upload Photos

1,754,174 photos uploaded!

Nearby

Snow Depth

Station Depth Elevation
No new snow has been reported.

Earthquake Activity

City Distance Mag. Time & Date
No recent earthquake activity has been reported nearby.
Minimum magnitude displayed is 2.5.

Coastal Water Temperatures

Place Temperature
No Stations Reporting

Nearby Weather Stations